AirNav   Air Wisconsin Up To $57,000 Bonus
 
 1324 users online  

KNFD Summerdale Naval Outlying Field
Summerdale, Alabama, USA

GOING TO SUMMERDALE?


FAA INFORMATION EFFECTIVE 15 JULY 2021

Location

FAA Identifier: NFD
Lat/Long: 30-30-27.4661N 087-38-48.7585W
30-30.457768N 087-38.812642W
30.5076295,-87.6468774
(estimated)
Elevation: 130.3 ft. / 39.7 m (surveyed)
Variation: 01E (1985)
Time zone: UTC -5 (UTC -6 during Standard Time)
Zip code: 36580

Airport Operations

Airport use: Private use. Permission required prior to landing
Activation date: 12/1980
Control tower: no
ARTCC: JACKSONVILLE CENTER
FSS: ANNISTON FLIGHT SERVICE STATION
Attendance: MON-FRI 1330-2330Z++, ALL SAT-SUN CLSD, ALL HOLS CLSD
Segmented circle: no

Airport Communications

CTAF: 254.325
WX AWOS-3PT at CQF (12 nm W): 118.425 (251-928-3242)
WX AWOS-3PT at JKA (13 nm S): 134.525 (251-968-7581)
  • COMMUNICATIONS AVAILABLE ON 381.9.
  • ARPT USED FOR TOUCH AND GO'S ONLY.

Nearby radio navigation aids

VOR radial/distance  VOR name  Freq  Var
NUNr277/(16.2)SAUFLEY VOR108.8001E
BFMr103/22.0BROOKLEY VORTAC112.8004E
SJIr105/39.0SEMMES VORTAC115.3005E

 
NDB name  Hdg/Dist  Freq  Var  ID
PICKENS282/24.632602WPKZ .--. -.- --..
WISLE115/37.124801WMOB -- --- -...

Airport Services

Runway Information

Runway 11/29

Dimensions: 4000 x 150 ft. / 1219 x 46 m
Surface: asphalt
Weight bearing capacity: 
PCN 24 /F/B/W/U
RUNWAY 11  RUNWAY 29
Latitude: 30-30.421210N30-30.245597N
Longitude: 087-39.181795W087-38.447300W
Elevation: 118.3 ft.119.7 ft.
Traffic pattern: leftleft
Touchdown point: yes, no lightsyes, no lights

Runway 5/23

Dimensions: 3998 x 150 ft. / 1219 x 46 m
Surface: asphalt
Weight bearing capacity: 
PCN 24 /F/B/W/U
RUNWAY 5  RUNWAY 23
Latitude: 30-30.350852N30-30.813537N
Longitude: 087-39.082138W087-38.539333W
Elevation: 118.8 ft.130.3 ft.
Traffic pattern: leftleft
Touchdown point: yes, no lightsyes, no lights

Airport Ownership and Management from official FAA records

Ownership: U.S. Navy
Owner: UNKNOWN
Manager: COMMANDING OFFICER
OPERATIONS DEPARTMENT, 7077 USS LEXINGTON COURT
MILTON, FL 32570-6016

Additional Remarks

CONTROLLING AGENCY NAS WHITING FLD, DSN 868-7475, C850-623-7475.
SINGLE ACFT, LOW APCH ONLY.
TRAWING 5 AND 6 ACFT ONLY. PPR FOR ALL OTHER ACFT. CLSD FIELD OPS PROHIBITED EXCEPT LOW APPROACHES.
FOR CD CTC PENSACOLA APCH AT 850-266-6884 OR 850-266-6885.

Instrument Procedures

There are no published instrument procedures at KNFD.

Some nearby airports with instrument procedures:

5R4 - Foley Municipal Airport (6 nm SW)
KCQF - H L Sonny Callahan Airport (12 nm W)
KJKA - Jack Edwards National Airport (13 nm S)
KNPA - Pensacola Naval Air Station/Forrest Sherman Field (19 nm SE)
KBFM - Mobile Downtown Airport (23 nm W)
 
Loc | Ops | Rwys | IFR | FBO | Links
Com | Nav | Svcs | Stats | Notes
Area around KNFD (Summerdale Naval Outlying Field)
 
Road maps at: MapQuest Bing Google
 
Aerial photo
No photo
 
Sectional chart

 
Airport distance calculator
Flying to Summerdale Naval Outlying Field? Find the distance to fly.

From to KNFD

Sunrise and sunset
Times for 28-Jul-2021
 Local
(UTC-5)
 Zulu
(UTC)
Morning civil twilight05:4110:41
Sunrise06:0711:07
Sunset19:4700:47
Evening civil twilight20:1301:13

Current date and time
Zulu (UTC)  28-Jul-2021 13:44:25
Local (UTC-5)  28-Jul-2021 08:44:25
 
METAR
KCQF 
12nm W 
281335Z AUTO 00000KT 10SM CLR 28/24 A3004 RMK AO2
KJKA 
13nm S 
281335Z AUTO 00000KT 10SM CLR 29/25 A3004 RMK AO2 T02880250
KNPA 
20nm SE 
281256Z 00000KT 9SM FEW020 BKN280 27/24 A3002 RMK AO2 SLP167 CB DSNT SE T2 SET T02670239 PNO $
KBFM 
23nm W 
281253Z 32003KT 10SM CLR 27/24 A3005 RMK AO2 SLP174 T02720244
KPNS 
24nm E 
281253Z 09003KT 10SM BKN110 27/24 A3002 RMK AO2 SLP167 T02720244
TAF
KNPA 
20nm SE 
2807/2907 VRB05KT 9999 FEW050 FEW250 QNH2994INS FM281800 20010KT 9999 VCTS SCT050CB SCT120 BKN250 QNH2990INS TEMPO 2819/2823 VRB15G25KT 3200 +TSRA BKN035CB BKN080 BECMG 2903/2904 VRB06KT 8000 BR FEW020 SCT040 QNH2993INS AUTOMATED SENSOR METWATCH 2807 TIL 2811 T26/2812Z T32/2820Z FN00243
KBFM 
23nm W 
281124Z 2812/2912 VRB03KT P6SM FEW100 FM281500 31004KT P6SM VCTS SCT100CB FM281800 18007KT 6SM TSRA BR FEW050CB BKN090 FM282100 20007KT 6SM -SHRA VCTS FEW050CB BKN090 FM290000 25004KT P6SM VCTS BKN100CB FM290600 VRB03KT P6SM SCT150
KPNS 
24nm E 
281124Z 2812/2912 VRB03KT P6SM FEW100 FM281500 31004KT P6SM VCTS SCT100CB FM281800 19007KT 6SM TSRA BR FEW050CB BKN090 FM282100 21008KT 6SM -SHRA VCTS FEW050CB BKN100 FM290000 26005KT P6SM VCTS BKN100CB FM290600 VRB03KT P6SM SCT120
NOTAMs
Click for the latest NOTAMs
NOTAMs are issued by the DoD/FAA and will open in a separate window not controlled by AirNav.

 

 
 

Would you like to see your business listed on this page?

 If your business provides an interesting product or service to pilots, flight crews, aircraft, or users of the Summerdale Naval Outlying Field, you should consider listing it here.  To start the listing process, click on the button below
 
Add a business
 

Other Pages about Summerdale Naval Outlying Field

Update a link
 
Copyright © AirNav, LLC. All rights reserved. Privacy Policy  Contact